createdAt,value
2023-02-19T09:47:27.905Z,99428.91
2023-02-19T09:49:36.795Z,99428.91
2023-02-19T09:51:45.255Z,98786.00
2023-02-19T09:53:50.984Z,98529.69
2023-02-19T09:55:54.546Z,98503.97
2023-02-19T09:57:59.638Z,98508.16
2023-02-19T10:00:25.331Z,98532.16
2023-02-19T10:02:31.643Z,98622.41
2023-02-19T10:04:34.459Z,98670.75
2023-02-19T10:06:38.868Z,98699.50
2023-02-19T10:08:42.157Z,98727.63
2023-02-19T10:10:45.203Z,98703.34
2023-02-19T10:12:50.603Z,98725.81
2023-02-19T10:15:00.564Z,98746.38
2023-02-19T10:17:06.270Z,98764.13
2023-02-19T10:19:13.157Z,98801.53
2023-02-19T10:21:25.154Z,98872.44
2023-02-19T10:23:28.585Z,98930.78
2023-02-19T10:25:33.227Z,99009.84
2023-02-19T10:27:36.223Z,99077.25
2023-02-19T10:29:38.867Z,99107.81
2023-02-19T10:31:41.791Z,99154.22
2023-02-19T10:33:56.673Z,99252.28
2023-02-19T10:36:39.699Z,99284.56
2023-02-19T10:38:48.106Z,99349.41
2023-02-19T10:41:00.909Z,99369.03
2023-02-19T10:43:05.066Z,99402.22
2023-02-19T10:45:19.002Z,99405.91
2023-02-19T10:47:24.535Z,99399.84
2023-02-19T10:49:40.711Z,99371.03
2023-02-19T10:51:44.467Z,99365.78
2023-02-19T10:54:03.299Z,99371.16
2023-02-19T10:56:09.243Z,99367.22
2023-02-19T10:58:29.335Z,99368.41
2023-02-19T11:00:32.561Z,99386.31
2023-02-19T11:02:37.417Z,99421.00
2023-02-19T11:04:40.280Z,99467.03
2023-02-19T11:06:45.273Z,99544.31
2023-02-19T11:09:01.167Z,99616.91
2023-02-19T11:11:03.925Z,99655.94
2023-02-19T11:13:14.726Z,99697.66
2023-02-19T11:15:45.023Z,99742.00
2023-02-19T11:17:59.944Z,99771.47
2023-02-19T11:20:24.162Z,99805.19
2023-02-19T11:22:34.910Z,99878.13
2023-02-19T11:24:40.660Z,99938.16
2023-02-19T11:26:45.245Z,99941.53
2023-02-19T11:28:56.393Z,99954.09
2023-02-19T11:31:14.410Z,99968.19
2023-02-19T11:33:17.699Z,100024.97
2023-02-19T11:35:25.355Z,100037.37
2023-02-19T11:37:30.550Z,100119.75
2023-02-19T11:39:33.970Z,100182.75
2023-02-19T11:42:14.664Z,100242.03
2023-02-19T11:44:45.044Z,100254.44
2023-02-19T11:47:18.185Z,100272.22
2023-02-19T11:49:45.340Z,100293.03
2023-02-19T11:51:52.680Z,100296.44
2023-02-19T11:54:09.988Z,100301.75
2023-02-19T11:56:19.347Z,100307.78
2023-02-19T11:59:04.979Z,100283.22
2023-02-19T12:01:25.958Z,100304.16
2023-02-19T12:04:01.145Z,100287.94
2023-02-19T12:06:28.956Z,100250.63
2023-02-19T12:08:50.293Z,100269.78
2023-02-19T12:11:04.553Z,100260.00
2023-02-19T12:13:21.956Z,100255.06
2023-02-19T12:15:59.479Z,100277.16
2023-02-19T12:18:05.751Z,100262.06
2023-02-19T12:20:31.787Z,100285.38
2023-02-19T12:23:04.279Z,100275.34
2023-02-19T12:25:28.200Z,100278.25
2023-02-19T12:27:45.967Z,100282.13
2023-02-19T12:29:52.230Z,100283.91
2023-02-19T12:32:27.684Z,100272.88
2023-02-19T12:34:45.382Z,100254.47
2023-02-19T12:37:06.509Z,100253.78
2023-02-19T12:39:18.060Z,100290.41
2023-02-19T12:41:28.464Z,100273.72
2023-02-19T12:43:33.626Z,100296.59
2023-02-19T12:45:41.495Z,100275.22
2023-02-19T12:47:58.305Z,100259.97
2023-02-19T12:50:13.974Z,100283.91
2023-02-19T12:52:24.984Z,100319.38
2023-02-19T12:54:34.403Z,100338.91
2023-02-19T12:56:50.338Z,100273.12
2023-02-19T12:59:02.399Z,99945.06
2023-02-19T13:01:07.638Z,99603.56
2023-02-19T13:03:28.627Z,99498.41
2023-02-19T13:05:59.289Z,99260.59
2023-02-19T13:08:12.817Z,99010.94
2023-02-19T13:10:39.379Z,98760.38
2023-02-19T13:12:46.531Z,98603.81
2023-02-19T13:15:03.607Z,98510.97
2023-02-19T13:17:38.163Z,98433.13
2023-02-19T13:19:40.812Z,98361.63
2023-02-19T13:22:12.776Z,98293.66
2023-02-19T13:24:28.393Z,98250.94
2023-02-19T13:26:39.145Z,98258.72
2023-02-19T13:29:00.679Z,98618.88
2023-02-19T13:31:19.262Z,98751.16
2023-02-19T13:33:35.733Z,98806.31
2023-02-19T13:36:10.953Z,99007.59
2023-02-19T13:38:15.822Z,99274.44
2023-02-19T13:40:37.194Z,99421.66
2023-02-19T13:42:40.019Z,99882.41
2023-02-19T13:44:48.616Z,100028.13
2023-02-19T13:46:52.110Z,100108.31
2023-02-19T13:49:28.684Z,100030.72
2023-02-19T13:51:35.166Z,99970.59
2023-02-19T13:53:45.225Z,99929.66
2023-02-19T13:56:34.421Z,99855.16
2023-02-19T13:58:39.537Z,99836.09
2023-02-19T14:00:52.219Z,99789.75
2023-02-19T14:03:37.834Z,99571.16
2023-02-19T14:06:03.573Z,99284.31
2023-02-19T14:08:09.875Z,99003.31
2023-02-19T14:10:34.578Z,98810.94
2023-02-19T14:12:39.008Z,98724.31
2023-02-19T14:14:42.775Z,98621.41
2023-02-19T14:16:48.496Z,98625.34
2023-02-19T14:18:53.141Z,98600.78
2023-02-19T14:21:14.887Z,98587.66
2023-02-19T14:23:24.785Z,98614.81
2023-02-19T14:25:31.494Z,98630.13
2023-02-19T14:27:38.417Z,98656.09
2023-02-19T14:29:41.803Z,98670.19
2023-02-19T14:31:48.682Z,98768.22
2023-02-19T14:34:22.417Z,98849.41
2023-02-19T14:36:52.291Z,98930.03
2023-02-19T14:39:00.300Z,99097.31
2023-02-19T14:41:05.200Z,99190.25
2023-02-19T14:43:14.828Z,99336.88
2023-02-19T14:45:20.066Z,99458.06
2023-02-19T14:47:25.991Z,99575.88
2023-02-19T14:49:35.152Z,99628.19
2023-02-19T14:51:46.448Z,99656.47
2023-02-19T14:53:51.842Z,99672.69
2023-02-19T14:55:57.119Z,99695.50
2023-02-19T14:58:05.425Z,99660.75
2023-02-19T15:00:25.522Z,99653.28
2023-02-19T15:02:32.875Z,99635.97
2023-02-19T15:04:37.537Z,99635.41
2023-02-19T15:06:40.766Z,99606.41
2023-02-19T15:08:58.941Z,99558.75
2023-02-19T15:11:04.693Z,99559.50
2023-02-19T15:13:12.550Z,99588.44
2023-02-19T15:15:30.034Z,99587.91
2023-02-19T15:17:44.289Z,99595.00
2023-02-19T15:19:48.171Z,99608.19
2023-02-19T15:21:51.749Z,99621.88
2023-02-19T15:23:57.598Z,99653.31
2023-02-19T15:26:00.840Z,99674.75
2023-02-19T15:28:26.340Z,99684.78
2023-02-19T15:30:33.463Z,99669.00
2023-02-19T15:32:36.557Z,99702.47
2023-02-19T15:34:42.442Z,99690.53
2023-02-19T15:36:50.745Z,99675.97
2023-02-19T15:38:57.573Z,99706.66
2023-02-19T15:41:01.811Z,99695.31
2023-02-19T15:43:05.493Z,99728.16
2023-02-19T15:45:23.718Z,99716.38
2023-02-19T15:47:53.229Z,99710.34
2023-02-19T15:50:32.566Z,99707.38
2023-02-19T15:52:59.803Z,99733.94
2023-02-19T15:55:03.817Z,99738.06
2023-02-19T15:57:14.953Z,99735.78
2023-02-19T15:59:18.029Z,99737.66
2023-02-19T16:01:29.322Z,99741.37
2023-02-19T16:03:36.629Z,99754.34
2023-02-19T16:05:43.147Z,99772.63
2023-02-19T16:07:49.012Z,99751.66
2023-02-19T16:10:24.723Z,99774.13
2023-02-19T16:12:28.795Z,99777.94
2023-02-19T16:14:35.361Z,99796.97
2023-02-19T16:16:42.425Z,99804.50
2023-02-19T16:18:51.152Z,99833.41
2023-02-19T16:20:54.393Z,99824.06
2023-02-19T16:23:19.360Z,99824.06
2023-02-19T16:25:44.695Z,99832.47
2023-02-19T16:27:48.398Z,99832.94
2023-02-19T16:29:53.630Z,99800.56
2023-02-19T16:32:18.050Z,99811.28
2023-02-19T16:34:49.273Z,99797.31
2023-02-19T16:36:52.972Z,99803.37
2023-02-19T16:39:08.448Z,99800.56
2023-02-19T16:41:14.409Z,99778.22
2023-02-19T16:43:26.049Z,99778.38
2023-02-19T16:45:33.481Z,99737.62
2023-02-19T16:47:42.072Z,99720.72
2023-02-19T16:49:45.773Z,99679.19
2023-02-19T16:51:49.771Z,99633.03
2023-02-19T16:53:55.968Z,99615.25
2023-02-19T16:56:03.129Z,99553.75
2023-02-19T16:58:08.454Z,99529.31
2023-02-19T17:00:24.561Z,99542.72
2023-02-19T17:02:30.434Z,99522.59
2023-02-19T17:04:35.372Z,99529.53
2023-02-19T17:06:39.532Z,99549.72
2023-02-19T17:08:44.838Z,99560.59
2023-02-19T17:10:48.580Z,99546.06
2023-02-19T17:12:53.346Z,99548.59
2023-02-19T17:14:56.723Z,99541.97
2023-02-19T17:17:02.089Z,99532.12
2023-02-19T17:19:13.358Z,99567.66
2023-02-19T17:21:28.198Z,99566.34
2023-02-19T17:23:31.662Z,99555.09
2023-02-19T17:25:34.910Z,99568.13
2023-02-19T17:27:38.266Z,99593.22
2023-02-19T17:29:41.709Z,99586.00
2023-02-19T17:31:45.549Z,99633.56
2023-02-19T17:33:51.558Z,99662.38
2023-02-19T17:35:56.598Z,99689.09
2023-02-19T17:38:00.977Z,99747.50
2023-02-19T17:40:08.092Z,99766.50
2023-02-19T17:42:11.510Z,99776.25
2023-02-19T17:44:15.341Z,99829.19
2023-02-19T17:46:30.864Z,99867.75
2023-02-19T17:48:41.732Z,99890.44
2023-02-19T17:50:45.209Z,99920.38
2023-02-19T17:52:51.585Z,99901.28
2023-02-19T17:54:54.788Z,99913.38
2023-02-19T17:57:01.943Z,99929.69
2023-02-19T17:59:05.532Z,99947.16
2023-02-19T18:01:09.817Z,99956.22
2023-02-19T18:03:14.802Z,99942.97
2023-02-19T18:05:18.806Z,99955.97
2023-02-19T18:07:25.216Z,99972.06
2023-02-19T18:09:28.980Z,100013.59
2023-02-19T18:11:32.168Z,100019.50
2023-02-19T18:13:37.204Z,100041.88
2023-02-19T18:15:44.469Z,100055.59
2023-02-19T18:17:51.406Z,100068.53
2023-02-19T18:19:55.276Z,100066.84
2023-02-19T18:21:58.953Z,100064.47
2023-02-19T18:24:03.290Z,100048.00
2023-02-19T18:26:11.490Z,100055.03
2023-02-19T18:28:25.023Z,100068.38
2023-02-19T18:30:29.975Z,100052.28
2023-02-19T18:32:34.217Z,100058.47
2023-02-19T18:34:38.639Z,100058.63
2023-02-19T18:36:46.808Z,100065.06
2023-02-19T18:38:50.045Z,100070.41
2023-02-19T18:40:54.604Z,100079.72
2023-02-19T18:42:58.897Z,100071.31
2023-02-19T18:45:04.572Z,100073.16
2023-02-19T18:47:11.804Z,100076.78
2023-02-19T18:49:20.376Z,100061.06
2023-02-19T18:51:23.961Z,100071.47
2023-02-19T18:53:31.426Z,100071.63
2023-02-19T18:55:35.137Z,100061.22
2023-02-19T18:57:41.960Z,100084.59
2023-02-19T18:59:47.435Z,100089.62
2023-02-19T19:01:51.814Z,100085.31
2023-02-19T19:03:55.485Z,100089.78
2023-02-19T19:05:59.774Z,100074.25
2023-02-19T19:08:04.981Z,100084.78
2023-02-19T19:10:10.321Z,100070.87
2023-02-19T19:12:15.149Z,100073.84
2023-02-19T19:14:30.285Z,100069.41
2023-02-19T19:16:34.777Z,100089.16
2023-02-19T19:18:39.208Z,100072.19
2023-02-19T19:20:42.683Z,100065.72
2023-02-19T19:22:49.919Z,100068.25
2023-02-19T19:24:54.693Z,100037.69
2023-02-19T19:26:59.502Z,100048.41
2023-02-19T19:29:04.072Z,100029.16
2023-02-19T19:31:08.224Z,100011.09
2023-02-19T19:33:14.150Z,99997.53
2023-02-19T19:35:18.883Z,99977.16
2023-02-19T19:37:23.113Z,99954.50
2023-02-19T19:39:26.667Z,99934.88
2023-02-19T19:41:32.550Z,99906.03
2023-02-19T19:43:37.284Z,99887.44
2023-02-19T19:45:43.593Z,99895.44
2023-02-19T19:47:49.538Z,99894.47
2023-02-19T19:49:55.734Z,99883.28
2023-02-19T19:52:01.706Z,99882.22
2023-02-19T19:54:09.730Z,99897.06
2023-02-19T19:56:15.524Z,99903.16
2023-02-19T19:58:22.871Z,99917.03
2023-02-19T20:00:26.520Z,99919.00
2023-02-19T20:02:30.415Z,99953.19
2023-02-19T20:04:34.274Z,99965.50
2023-02-19T20:06:38.020Z,99992.06
2023-02-19T20:08:41.908Z,100021.59
2023-02-19T20:10:47.219Z,100033.66
2023-02-19T20:12:52.320Z,100060.50
2023-02-19T20:14:57.864Z,100100.28
2023-02-19T20:17:01.919Z,100116.47
2023-02-19T20:19:06.623Z,100163.06
2023-02-19T20:21:11.409Z,100176.28
2023-02-19T20:23:16.918Z,100197.09
2023-02-19T20:25:22.595Z,100218.00
2023-02-19T20:27:28.008Z,100230.09
2023-02-19T20:29:35.223Z,100240.13
2023-02-19T20:31:40.528Z,100239.12
2023-02-19T20:33:44.946Z,100233.75
2023-02-19T20:35:48.845Z,100231.66
2023-02-19T20:37:55.817Z,100247.31
2023-02-19T20:40:01.110Z,100253.31
2023-02-19T20:42:06.642Z,100259.66
2023-02-19T20:44:10.282Z,100253.72
2023-02-19T20:46:14.163Z,100263.19
2023-02-19T20:48:17.800Z,100273.28
2023-02-19T20:50:21.328Z,100266.94
2023-02-19T20:52:26.132Z,100266.06
2023-02-19T20:54:32.414Z,100275.47
2023-02-19T20:56:36.138Z,100302.53
2023-02-19T20:58:43.736Z,100329.72
2023-02-19T21:00:47.054Z,100352.34
2023-02-19T21:02:50.699Z,100374.09
2023-02-19T21:04:54.965Z,100425.06
2023-02-19T21:06:58.661Z,100448.13
2023-02-19T21:09:02.621Z,100476.38
2023-02-19T21:11:07.780Z,100480.03
2023-02-19T21:13:10.648Z,100504.50
2023-02-19T21:15:17.179Z,100501.94
2023-02-19T21:17:20.535Z,100505.41
2023-02-19T21:19:23.853Z,100492.47
2023-02-19T21:21:27.931Z,100498.72
2023-02-19T21:23:31.097Z,100490.34
2023-02-19T21:25:34.451Z,100472.78
2023-02-19T21:27:40.143Z,100459.34
2023-02-19T21:29:45.049Z,100440.13
2023-02-19T21:31:51.921Z,100421.91
2023-02-19T21:33:54.569Z,100417.19
2023-02-19T21:35:58.701Z,100432.38
2023-02-19T21:38:01.768Z,100431.56
2023-02-19T21:40:04.967Z,100416.91
2023-02-19T21:42:07.644Z,100417.19
2023-02-19T21:44:10.769Z,100422.28
2023-02-19T21:46:19.914Z,100420.16
2023-02-19T21:48:23.156Z,100419.13
2023-02-19T21:50:26.168Z,100435.94
2023-02-19T21:52:28.949Z,100463.06
2023-02-19T21:54:31.834Z,100489.00
2023-02-19T21:56:36.473Z,100528.03
2023-02-19T21:58:39.150Z,100567.97
2023-02-19T22:00:42.132Z,100600.81
2023-02-19T22:02:45.233Z,100620.91
2023-02-19T22:04:53.627Z,100670.06
2023-02-19T22:06:57.014Z,100702.22
2023-02-19T22:09:00.237Z,100727.25
2023-02-19T22:11:02.577Z,100766.28
2023-02-19T22:13:05.059Z,100789.59
2023-02-19T22:15:08.247Z,100817.38
2023-02-19T22:17:11.215Z,100815.81
2023-02-19T22:19:13.990Z,100832.34
2023-02-19T22:21:17.581Z,100855.69
2023-02-19T22:23:20.050Z,100857.56
2023-02-19T22:25:22.626Z,100876.44
2023-02-19T22:27:25.298Z,100875.06
2023-02-19T22:29:27.937Z,100895.75
2023-02-19T22:31:32.713Z,100894.13
2023-02-19T22:33:35.387Z,100907.06
2023-02-19T22:35:37.773Z,100914.09
2023-02-19T22:37:40.267Z,100916.62
2023-02-19T22:39:42.948Z,100916.56
2023-02-19T22:41:45.662Z,100928.69
2023-02-19T22:43:49.118Z,100940.72
2023-02-19T22:45:51.765Z,100942.53
2023-02-19T22:47:55.722Z,100962.47
2023-02-19T22:49:58.203Z,100967.56
2023-02-19T22:52:11.634Z,100973.56
2023-02-19T22:54:13.914Z,100986.59
2023-02-19T22:56:18.046Z,100990.09
2023-02-19T22:58:20.798Z,100993.44
2023-02-19T23:00:23.265Z,100994.91
2023-02-19T23:02:25.635Z,101000.19
2023-02-19T23:04:28.300Z,101000.19
2023-02-19T23:06:33.194Z,101008.94
